sensor_id;sensor_type;location;lat;lon;timestamp;P1;durP1;ratioP1;P2;durP2;ratioP2
77085;SDS011;66014;53.134;18.006;2023-06-24T00:00:47;5.10;;;3.40;;
77085;SDS011;66014;53.134;18.006;2023-06-24T00:03:33;5.30;;;3.40;;
77085;SDS011;66014;53.134;18.006;2023-06-24T00:06:03;5.40;;;3.60;;
77085;SDS011;66014;53.134;18.006;2023-06-24T00:08:29;5.70;;;3.60;;
77085;SDS011;66014;53.134;18.006;2023-06-24T00:11:02;7.10;;;3.90;;
77085;SDS011;66014;53.134;18.006;2023-06-24T00:13:33;6.80;;;3.50;;
77085;SDS011;66014;53.134;18.006;2023-06-24T00:16:00;6.80;;;3.80;;
77085;SDS011;66014;53.134;18.006;2023-06-24T00:18:26;5.90;;;4.00;;
77085;SDS011;66014;53.134;18.006;2023-06-24T00:20:55;5.80;;;3.40;;
77085;SDS011;66014;53.134;18.006;2023-06-24T00:23:22;5.70;;;3.50;;
77085;SDS011;66014;53.134;18.006;2023-06-24T00:25:52;5.80;;;3.50;;
77085;SDS011;66014;53.134;18.006;2023-06-24T00:28:21;5.30;;;3.40;;
77085;SDS011;66014;53.134;18.006;2023-06-24T00:30:48;5.60;;;3.90;;
77085;SDS011;66014;53.134;18.006;2023-06-24T00:33:15;6.00;;;3.90;;
77085;SDS011;66014;53.134;18.006;2023-06-24T00:35:46;5.00;;;3.50;;
77085;SDS011;66014;53.134;18.006;2023-06-24T00:38:13;7.40;;;3.80;;
77085;SDS011;66014;53.134;18.006;2023-06-24T00:40:39;6.60;;;3.80;;
77085;SDS011;66014;53.134;18.006;2023-06-24T00:43:06;6.20;;;3.60;;
77085;SDS011;66014;53.134;18.006;2023-06-24T00:45:33;5.90;;;3.90;;
77085;SDS011;66014;53.134;18.006;2023-06-24T00:48:00;6.50;;;3.90;;
77085;SDS011;66014;53.134;18.006;2023-06-24T00:50:27;7.90;;;4.00;;
77085;SDS011;66014;53.134;18.006;2023-06-24T00:52:53;6.50;;;4.40;;
77085;SDS011;66014;53.134;18.006;2023-06-24T00:55:20;6.20;;;3.50;;
77085;SDS011;66014;53.134;18.006;2023-06-24T00:57:49;7.10;;;3.60;;
77085;SDS011;66014;53.134;18.006;2023-06-24T01:00:18;6.00;;;3.80;;
77085;SDS011;66014;53.134;18.006;2023-06-24T01:02:46;6.60;;;3.80;;
77085;SDS011;66014;53.134;18.006;2023-06-24T01:05:14;6.70;;;3.80;;
77085;SDS011;66014;53.134;18.006;2023-06-24T01:07:41;7.20;;;3.90;;
77085;SDS011;66014;53.134;18.006;2023-06-24T01:10:09;6.00;;;4.00;;
77085;SDS011;66014;53.134;18.006;2023-06-24T01:15:08;7.40;;;3.50;;
77085;SDS011;66014;53.134;18.006;2023-06-24T01:17:39;7.50;;;3.70;;
77085;SDS011;66014;53.134;18.006;2023-06-24T01:20:19;6.80;;;3.90;;
77085;SDS011;66014;53.134;18.006;2023-06-24T01:23:51;5.70;;;4.00;;
77085;SDS011;66014;53.134;18.006;2023-06-24T01:34:18;6.70;;;3.40;;
77085;SDS011;66014;53.134;18.006;2023-06-24T01:37:37;5.00;;;3.30;;
77085;SDS011;66014;53.134;18.006;2023-06-24T01:45:28;6.30;;;3.30;;
77085;SDS011;66014;53.134;18.006;2023-06-24T01:48:06;5.10;;;3.20;;
77085;SDS011;66014;53.134;18.006;2023-06-24T01:50:37;4.20;;;3.00;;
77085;SDS011;66014;53.134;18.006;2023-06-24T01:53:08;6.20;;;3.40;;
77085;SDS011;66014;53.134;18.006;2023-06-24T01:55:40;6.30;;;3.40;;
77085;SDS011;66014;53.134;18.006;2023-06-24T01:58:08;5.80;;;3.80;;
77085;SDS011;66014;53.134;18.006;2023-06-24T02:00:38;5.60;;;4.00;;
77085;SDS011;66014;53.134;18.006;2023-06-24T02:03:06;7.70;;;4.10;;
77085;SDS011;66014;53.134;18.006;2023-06-24T02:05:34;7.50;;;3.30;;
77085;SDS011;66014;53.134;18.006;2023-06-24T02:08:07;6.80;;;3.60;;
77085;SDS011;66014;53.134;18.006;2023-06-24T02:10:38;7.50;;;3.60;;
77085;SDS011;66014;53.134;18.006;2023-06-24T02:13:05;7.20;;;4.00;;
77085;SDS011;66014;53.134;18.006;2023-06-24T02:15:34;6.60;;;3.90;;
77085;SDS011;66014;53.134;18.006;2023-06-24T02:20:31;8.50;;;4.10;;
77085;SDS011;66014;53.134;18.006;2023-06-24T02:22:59;7.30;;;3.90;;
77085;SDS011;66014;53.134;18.006;2023-06-24T02:25:27;6.50;;;4.20;;
77085;SDS011;66014;53.134;18.006;2023-06-24T02:27:54;7.00;;;4.10;;
77085;SDS011;66014;53.134;18.006;2023-06-24T02:30:21;8.10;;;4.40;;
77085;SDS011;66014;53.134;18.006;2023-06-24T02:32:49;6.50;;;3.90;;
77085;SDS011;66014;53.134;18.006;2023-06-24T02:35:15;6.00;;;4.00;;
77085;SDS011;66014;53.134;18.006;2023-06-24T02:37:42;7.60;;;4.30;;
77085;SDS011;66014;53.134;18.006;2023-06-24T02:40:08;9.10;;;4.60;;
77085;SDS011;66014;53.134;18.006;2023-06-24T02:42:37;6.00;;;4.00;;
77085;SDS011;66014;53.134;18.006;2023-06-24T02:45:04;6.90;;;4.50;;
77085;SDS011;66014;53.134;18.006;2023-06-24T02:47:32;9.10;;;4.10;;
77085;SDS011;66014;53.134;18.006;2023-06-24T02:50:00;6.90;;;3.80;;
77085;SDS011;66014;53.134;18.006;2023-06-24T02:52:27;8.60;;;3.90;;
77085;SDS011;66014;53.134;18.006;2023-06-24T02:54:56;6.60;;;3.60;;
77085;SDS011;66014;53.134;18.006;2023-06-24T02:57:23;6.50;;;3.60;;
77085;SDS011;66014;53.134;18.006;2023-06-24T02:59:52;7.00;;;4.00;;
77085;SDS011;66014;53.134;18.006;2023-06-24T03:02:19;6.00;;;3.70;;
77085;SDS011;66014;53.134;18.006;2023-06-24T03:04:46;6.10;;;3.70;;
77085;SDS011;66014;53.134;18.006;2023-06-24T03:07:14;7.00;;;3.90;;
77085;SDS011;66014;53.134;18.006;2023-06-24T03:09:42;8.20;;;3.70;;
77085;SDS011;66014;53.134;18.006;2023-06-24T03:12:09;5.40;;;3.60;;
77085;SDS011;66014;53.134;18.006;2023-06-24T03:14:37;7.80;;;3.70;;
77085;SDS011;66014;53.134;18.006;2023-06-24T03:17:04;5.40;;;3.70;;
77085;SDS011;66014;53.134;18.006;2023-06-24T03:19:31;10.00;;;3.90;;
77085;SDS011;66014;53.134;18.006;2023-06-24T03:21:57;7.90;;;3.50;;
77085;SDS011;66014;53.134;18.006;2023-06-24T03:24:24;6.80;;;3.80;;
77085;SDS011;66014;53.134;18.006;2023-06-24T03:26:50;4.90;;;3.50;;
77085;SDS011;66014;53.134;18.006;2023-06-24T03:29:22;5.90;;;3.70;;
77085;SDS011;66014;53.134;18.006;2023-06-24T03:31:49;6.30;;;3.70;;
77085;SDS011;66014;53.134;18.006;2023-06-24T03:34:16;6.40;;;3.40;;
77085;SDS011;66014;53.134;18.006;2023-06-24T03:36:43;5.00;;;3.40;;
77085;SDS011;66014;53.134;18.006;2023-06-24T03:39:10;7.00;;;3.90;;
77085;SDS011;66014;53.134;18.006;2023-06-24T03:41:36;6.00;;;3.80;;
77085;SDS011;66014;53.134;18.006;2023-06-24T03:44:03;8.00;;;4.00;;
77085;SDS011;66014;53.134;18.006;2023-06-24T03:46:37;8.50;;;4.20;;
77085;SDS011;66014;53.134;18.006;2023-06-24T03:49:03;6.10;;;3.30;;
77085;SDS011;66014;53.134;18.006;2023-06-24T03:51:30;5.40;;;3.50;;
77085;SDS011;66014;53.134;18.006;2023-06-24T03:53:57;5.90;;;3.40;;
77085;SDS011;66014;53.134;18.006;2023-06-24T03:56:23;6.10;;;3.60;;
77085;SDS011;66014;53.134;18.006;2023-06-24T03:58:50;9.90;;;3.80;;
77085;SDS011;66014;53.134;18.006;2023-06-24T04:01:16;6.70;;;3.80;;
77085;SDS011;66014;53.134;18.006;2023-06-24T04:03:46;5.90;;;3.70;;
77085;SDS011;66014;53.134;18.006;2023-06-24T04:06:13;5.20;;;3.40;;
77085;SDS011;66014;53.134;18.006;2023-06-24T04:08:40;5.90;;;3.50;;
77085;SDS011;66014;53.134;18.006;2023-06-24T04:11:06;7.40;;;3.90;;
77085;SDS011;66014;53.134;18.006;2023-06-24T04:13:34;8.40;;;3.80;;
77085;SDS011;66014;53.134;18.006;2023-06-24T04:16:01;6.40;;;3.50;;
77085;SDS011;66014;53.134;18.006;2023-06-24T04:18:27;6.20;;;3.60;;
77085;SDS011;66014;53.134;18.006;2023-06-24T04:20:54;5.80;;;4.00;;
77085;SDS011;66014;53.134;18.006;2023-06-24T04:23:20;7.80;;;4.30;;
77085;SDS011;66014;53.134;18.006;2023-06-24T04:25:47;5.50;;;3.40;;
77085;SDS011;66014;53.134;18.006;2023-06-24T04:28:13;7.30;;;4.40;;
77085;SDS011;66014;53.134;18.006;2023-06-24T04:30:40;5.60;;;3.40;;
77085;SDS011;66014;53.134;18.006;2023-06-24T04:33:06;7.60;;;4.40;;
77085;SDS011;66014;53.134;18.006;2023-06-24T04:35:33;6.60;;;4.00;;
77085;SDS011;66014;53.134;18.006;2023-06-24T04:38:00;6.30;;;4.20;;
77085;SDS011;66014;53.134;18.006;2023-06-24T04:40:26;7.20;;;4.30;;
77085;SDS011;66014;53.134;18.006;2023-06-24T04:42:53;6.10;;;4.20;;
77085;SDS011;66014;53.134;18.006;2023-06-24T04:45:19;6.70;;;4.20;;
77085;SDS011;66014;53.134;18.006;2023-06-24T04:47:46;6.80;;;4.10;;
77085;SDS011;66014;53.134;18.006;2023-06-24T04:50:12;5.70;;;4.00;;
77085;SDS011;66014;53.134;18.006;2023-06-24T04:52:39;6.00;;;3.20;;
77085;SDS011;66014;53.134;18.006;2023-06-24T04:55:06;8.20;;;4.10;;
77085;SDS011;66014;53.134;18.006;2023-06-24T04:57:32;6.80;;;3.70;;
77085;SDS011;66014;53.134;18.006;2023-06-24T05:00:00;10.20;;;3.80;;
77085;SDS011;66014;53.134;18.006;2023-06-24T05:02:27;5.40;;;3.70;;
77085;SDS011;66014;53.134;18.006;2023-06-24T05:04:54;6.10;;;3.70;;
77085;SDS011;66014;53.134;18.006;2023-06-24T05:07:22;6.20;;;3.50;;
77085;SDS011;66014;53.134;18.006;2023-06-24T05:09:49;4.80;;;3.10;;
77085;SDS011;66014;53.134;18.006;2023-06-24T05:12:17;6.60;;;4.20;;
77085;SDS011;66014;53.134;18.006;2023-06-24T05:14:43;6.00;;;4.00;;
77085;SDS011;66014;53.134;18.006;2023-06-24T05:17:10;6.70;;;3.90;;
77085;SDS011;66014;53.134;18.006;2023-06-24T05:19:36;6.20;;;3.60;;
77085;SDS011;66014;53.134;18.006;2023-06-24T05:22:03;7.30;;;4.30;;
77085;SDS011;66014;53.134;18.006;2023-06-24T05:24:29;6.70;;;3.70;;
77085;SDS011;66014;53.134;18.006;2023-06-24T05:26:56;5.80;;;3.90;;
77085;SDS011;66014;53.134;18.006;2023-06-24T05:29:22;5.90;;;3.60;;
77085;SDS011;66014;53.134;18.006;2023-06-24T05:31:49;6.90;;;3.70;;
77085;SDS011;66014;53.134;18.006;2023-06-24T05:34:15;6.40;;;3.20;;
77085;SDS011;66014;53.134;18.006;2023-06-24T05:36:42;5.00;;;2.90;;
77085;SDS011;66014;53.134;18.006;2023-06-24T05:39:09;8.30;;;3.70;;
77085;SDS011;66014;53.134;18.006;2023-06-24T05:41:37;5.40;;;3.70;;
77085;SDS011;66014;53.134;18.006;2023-06-24T05:44:06;4.30;;;3.30;;
77085;SDS011;66014;53.134;18.006;2023-06-24T05:46:33;4.80;;;3.70;;
77085;SDS011;66014;53.134;18.006;2023-06-24T05:49:00;6.00;;;3.80;;
77085;SDS011;66014;53.134;18.006;2023-06-24T05:51:26;5.30;;;3.40;;
77085;SDS011;66014;53.134;18.006;2023-06-24T05:53:53;6.00;;;3.10;;
77085;SDS011;66014;53.134;18.006;2023-06-24T05:56:20;5.70;;;3.20;;
77085;SDS011;66014;53.134;18.006;2023-06-24T05:58:48;5.80;;;3.20;;
77085;SDS011;66014;53.134;18.006;2023-06-24T06:01:15;6.60;;;3.50;;
77085;SDS011;66014;53.134;18.006;2023-06-24T06:03:42;5.70;;;3.20;;
77085;SDS011;66014;53.134;18.006;2023-06-24T06:06:08;6.40;;;3.30;;
77085;SDS011;66014;53.134;18.006;2023-06-24T06:08:35;5.70;;;3.80;;
77085;SDS011;66014;53.134;18.006;2023-06-24T06:11:01;6.00;;;3.20;;
77085;SDS011;66014;53.134;18.006;2023-06-24T06:13:28;4.40;;;3.10;;
77085;SDS011;66014;53.134;18.006;2023-06-24T06:15:55;5.80;;;3.10;;
77085;SDS011;66014;53.134;18.006;2023-06-24T06:18:22;5.90;;;3.80;;
77085;SDS011;66014;53.134;18.006;2023-06-24T06:20:49;6.40;;;3.50;;
77085;SDS011;66014;53.134;18.006;2023-06-24T06:23:16;4.80;;;2.80;;
77085;SDS011;66014;53.134;18.006;2023-06-24T06:25:43;5.50;;;3.30;;
77085;SDS011;66014;53.134;18.006;2023-06-24T06:28:10;5.90;;;3.00;;
77085;SDS011;66014;53.134;18.006;2023-06-24T06:30:37;6.50;;;3.30;;
77085;SDS011;66014;53.134;18.006;2023-06-24T06:33:03;5.60;;;2.90;;
77085;SDS011;66014;53.134;18.006;2023-06-24T06:35:30;5.60;;;2.80;;
77085;SDS011;66014;53.134;18.006;2023-06-24T06:37:57;5.20;;;3.40;;
77085;SDS011;66014;53.134;18.006;2023-06-24T06:40:24;4.90;;;3.00;;
77085;SDS011;66014;53.134;18.006;2023-06-24T06:42:50;6.10;;;3.30;;
77085;SDS011;66014;53.134;18.006;2023-06-24T06:45:17;4.60;;;2.90;;
77085;SDS011;66014;53.134;18.006;2023-06-24T06:47:45;5.20;;;2.60;;
77085;SDS011;66014;53.134;18.006;2023-06-24T06:50:11;5.60;;;3.20;;
77085;SDS011;66014;53.134;18.006;2023-06-24T06:52:38;5.90;;;2.60;;
77085;SDS011;66014;53.134;18.006;2023-06-24T06:55:05;6.00;;;3.00;;
77085;SDS011;66014;53.134;18.006;2023-06-24T06:57:32;5.70;;;3.10;;
77085;SDS011;66014;53.134;18.006;2023-06-24T06:59:58;4.50;;;2.40;;
77085;SDS011;66014;53.134;18.006;2023-06-24T07:02:25;5.30;;;2.80;;
77085;SDS011;66014;53.134;18.006;2023-06-24T07:04:51;7.30;;;2.60;;
77085;SDS011;66014;53.134;18.006;2023-06-24T07:07:18;7.20;;;2.60;;
77085;SDS011;66014;53.134;18.006;2023-06-24T07:09:44;10.80;;;4.50;;
77085;SDS011;66014;53.134;18.006;2023-06-24T07:12:12;4.60;;;2.60;;
77085;SDS011;66014;53.134;18.006;2023-06-24T07:14:39;3.10;;;2.20;;
77085;SDS011;66014;53.134;18.006;2023-06-24T07:17:06;4.00;;;2.30;;
77085;SDS011;66014;53.134;18.006;2023-06-24T07:19:33;4.90;;;2.10;;
77085;SDS011;66014;53.134;18.006;2023-06-24T07:22:00;4.20;;;2.20;;
77085;SDS011;66014;53.134;18.006;2023-06-24T07:24:26;6.20;;;2.30;;
77085;SDS011;66014;53.134;18.006;2023-06-24T07:26:53;3.50;;;2.30;;
77085;SDS011;66014;53.134;18.006;2023-06-24T07:29:19;3.70;;;2.30;;
77085;SDS011;66014;53.134;18.006;2023-06-24T07:31:47;3.20;;;2.10;;
77085;SDS011;66014;53.134;18.006;2023-06-24T07:34:13;4.00;;;2.10;;
77085;SDS011;66014;53.134;18.006;2023-06-24T07:36:40;3.70;;;2.10;;
77085;SDS011;66014;53.134;18.006;2023-06-24T07:39:06;4.80;;;1.90;;
77085;SDS011;66014;53.134;18.006;2023-06-24T07:41:33;9.20;;;2.50;;
77085;SDS011;66014;53.134;18.006;2023-06-24T07:44:00;4.20;;;2.30;;
77085;SDS011;66014;53.134;18.006;2023-06-24T07:46:26;4.50;;;2.60;;
77085;SDS011;66014;53.134;18.006;2023-06-24T07:48:54;4.20;;;2.00;;
77085;SDS011;66014;53.134;18.006;2023-06-24T07:51:20;3.90;;;2.10;;
77085;SDS011;66014;53.134;18.006;2023-06-24T07:53:47;4.80;;;2.90;;
77085;SDS011;66014;53.134;18.006;2023-06-24T07:56:13;5.40;;;2.40;;
77085;SDS011;66014;53.134;18.006;2023-06-24T07:58:40;13.10;;;8.90;;
77085;SDS011;66014;53.134;18.006;2023-06-24T08:01:06;4.40;;;2.30;;
77085;SDS011;66014;53.134;18.006;2023-06-24T08:03:33;4.50;;;2.40;;
77085;SDS011;66014;53.134;18.006;2023-06-24T08:06:00;4.60;;;2.50;;
77085;SDS011;66014;53.134;18.006;2023-06-24T08:08:26;3.80;;;2.60;;
77085;SDS011;66014;53.134;18.006;2023-06-24T08:10:53;4.90;;;2.40;;
77085;SDS011;66014;53.134;18.006;2023-06-24T08:13:19;3.40;;;2.50;;
77085;SDS011;66014;53.134;18.006;2023-06-24T08:15:47;9.30;;;2.50;;
77085;SDS011;66014;53.134;18.006;2023-06-24T08:18:14;5.30;;;2.70;;
77085;SDS011;66014;53.134;18.006;2023-06-24T08:20:40;4.30;;;2.40;;
77085;SDS011;66014;53.134;18.006;2023-06-24T08:23:07;5.40;;;2.40;;
77085;SDS011;66014;53.134;18.006;2023-06-24T08:25:35;4.90;;;2.10;;
77085;SDS011;66014;53.134;18.006;2023-06-24T08:28:02;3.70;;;2.40;;
77085;SDS011;66014;53.134;18.006;2023-06-24T08:30:29;5.20;;;2.90;;
77085;SDS011;66014;53.134;18.006;2023-06-24T08:32:55;5.60;;;3.10;;
77085;SDS011;66014;53.134;18.006;2023-06-24T08:35:22;4.00;;;2.20;;
77085;SDS011;66014;53.134;18.006;2023-06-24T08:37:48;3.80;;;2.30;;
77085;SDS011;66014;53.134;18.006;2023-06-24T08:40:15;2.90;;;1.80;;
77085;SDS011;66014;53.134;18.006;2023-06-24T08:42:43;4.70;;;1.90;;
77085;SDS011;66014;53.134;18.006;2023-06-24T08:45:10;4.10;;;1.90;;
77085;SDS011;66014;53.134;18.006;2023-06-24T08:47:37;3.20;;;2.10;;
77085;SDS011;66014;53.134;18.006;2023-06-24T08:50:12;4.20;;;1.90;;
77085;SDS011;66014;53.134;18.006;2023-06-24T08:52:42;3.40;;;1.90;;
77085;SDS011;66014;53.134;18.006;2023-06-24T08:55:16;3.70;;;2.00;;
77085;SDS011;66014;53.134;18.006;2023-06-24T08:57:46;4.30;;;2.00;;
77085;SDS011;66014;53.134;18.006;2023-06-24T09:00:13;3.30;;;1.80;;
77085;SDS011;66014;53.134;18.006;2023-06-24T09:02:40;2.90;;;1.90;;
77085;SDS011;66014;53.134;18.006;2023-06-24T09:05:07;3.10;;;1.70;;
77085;SDS011;66014;53.134;18.006;2023-06-24T09:07:34;4.30;;;1.90;;
77085;SDS011;66014;53.134;18.006;2023-06-24T09:10:00;5.00;;;1.80;;
77085;SDS011;66014;53.134;18.006;2023-06-24T09:12:28;3.00;;;2.20;;
77085;SDS011;66014;53.134;18.006;2023-06-24T09:14:58;3.50;;;2.20;;
77085;SDS011;66014;53.134;18.006;2023-06-24T09:17:25;4.50;;;2.00;;
77085;SDS011;66014;53.134;18.006;2023-06-24T09:19:51;3.60;;;1.90;;
77085;SDS011;66014;53.134;18.006;2023-06-24T09:22:18;5.70;;;2.10;;
77085;SDS011;66014;53.134;18.006;2023-06-24T09:24:46;4.70;;;2.00;;
77085;SDS011;66014;53.134;18.006;2023-06-24T09:29:43;3.80;;;2.00;;
77085;SDS011;66014;53.134;18.006;2023-06-24T09:32:10;3.20;;;2.00;;
77085;SDS011;66014;53.134;18.006;2023-06-24T09:34:37;4.40;;;2.00;;
77085;SDS011;66014;53.134;18.006;2023-06-24T09:37:06;3.50;;;2.30;;
77085;SDS011;66014;53.134;18.006;2023-06-24T09:39:35;5.60;;;2.10;;
77085;SDS011;66014;53.134;18.006;2023-06-24T09:42:05;5.60;;;2.20;;
77085;SDS011;66014;53.134;18.006;2023-06-24T09:44:36;3.70;;;2.20;;
77085;SDS011;66014;53.134;18.006;2023-06-24T09:47:06;3.30;;;1.80;;
77085;SDS011;66014;53.134;18.006;2023-06-24T09:49:36;6.00;;;2.20;;
77085;SDS011;66014;53.134;18.006;2023-06-24T09:52:03;3.80;;;2.40;;
77085;SDS011;66014;53.134;18.006;2023-06-24T09:54:32;4.20;;;2.50;;
77085;SDS011;66014;53.134;18.006;2023-06-24T09:57:02;4.20;;;2.60;;
77085;SDS011;66014;53.134;18.006;2023-06-24T09:59:30;4.70;;;2.60;;
77085;SDS011;66014;53.134;18.006;2023-06-24T10:01:59;5.40;;;2.50;;
77085;SDS011;66014;53.134;18.006;2023-06-24T10:04:26;4.40;;;2.80;;
77085;SDS011;66014;53.134;18.006;2023-06-24T10:06:54;5.20;;;3.00;;
77085;SDS011;66014;53.134;18.006;2023-06-24T10:09:21;3.90;;;2.00;;
77085;SDS011;66014;53.134;18.006;2023-06-24T10:11:47;3.90;;;2.40;;
77085;SDS011;66014;53.134;18.006;2023-06-24T10:14:15;3.80;;;2.30;;
77085;SDS011;66014;53.134;18.006;2023-06-24T10:16:44;3.30;;;2.30;;
77085;SDS011;66014;53.134;18.006;2023-06-24T10:19:13;4.70;;;2.40;;
77085;SDS011;66014;53.134;18.006;2023-06-24T10:24:32;3.10;;;2.00;;
77085;SDS011;66014;53.134;18.006;2023-06-24T10:27:04;2.70;;;1.70;;
77085;SDS011;66014;53.134;18.006;2023-06-24T10:29:31;4.60;;;2.10;;
77085;SDS011;66014;53.134;18.006;2023-06-24T10:32:00;3.00;;;1.70;;
77085;SDS011;66014;53.134;18.006;2023-06-24T10:34:32;5.50;;;2.10;;
77085;SDS011;66014;53.134;18.006;2023-06-24T10:37:13;3.70;;;1.80;;
77085;SDS011;66014;53.134;18.006;2023-06-24T10:39:51;3.00;;;1.70;;
77085;SDS011;66014;53.134;18.006;2023-06-24T10:47:36;3.00;;;2.00;;
77085;SDS011;66014;53.134;18.006;2023-06-24T10:50:05;3.10;;;2.00;;
77085;SDS011;66014;53.134;18.006;2023-06-24T10:52:35;3.80;;;1.80;;
77085;SDS011;66014;53.134;18.006;2023-06-24T10:55:04;2.70;;;1.80;;
77085;SDS011;66014;53.134;18.006;2023-06-24T10:57:31;3.10;;;2.10;;
77085;SDS011;66014;53.134;18.006;2023-06-24T10:59:57;3.20;;;2.10;;
77085;SDS011;66014;53.134;18.006;2023-06-24T11:02:25;3.20;;;2.00;;
77085;SDS011;66014;53.134;18.006;2023-06-24T11:04:56;4.20;;;1.90;;
77085;SDS011;66014;53.134;18.006;2023-06-24T11:07:24;3.40;;;1.70;;
77085;SDS011;66014;53.134;18.006;2023-06-24T11:10:04;5.80;;;2.50;;
77085;SDS011;66014;53.134;18.006;2023-06-24T11:12:33;2.90;;;2.00;;
77085;SDS011;66014;53.134;18.006;2023-06-24T11:17:29;3.20;;;2.20;;
77085;SDS011;66014;53.134;18.006;2023-06-24T11:19:56;3.30;;;2.10;;
77085;SDS011;66014;53.134;18.006;2023-06-24T11:22:24;3.20;;;1.70;;
77085;SDS011;66014;53.134;18.006;2023-06-24T11:24:51;4.10;;;2.30;;
77085;SDS011;66014;53.134;18.006;2023-06-24T11:27:23;3.30;;;2.30;;
77085;SDS011;66014;53.134;18.006;2023-06-24T11:29:57;4.50;;;2.20;;
77085;SDS011;66014;53.134;18.006;2023-06-24T11:32:37;4.60;;;2.20;;
77085;SDS011;66014;53.134;18.006;2023-06-24T11:35:08;5.00;;;2.20;;
77085;SDS011;66014;53.134;18.006;2023-06-24T11:37:36;3.50;;;2.40;;
77085;SDS011;66014;53.134;18.006;2023-06-24T11:40:06;3.80;;;2.50;;
77085;SDS011;66014;53.134;18.006;2023-06-24T11:42:37;4.00;;;2.70;;
77085;SDS011;66014;53.134;18.006;2023-06-24T11:45:08;5.90;;;2.50;;
77085;SDS011;66014;53.134;18.006;2023-06-24T11:47:37;5.80;;;2.50;;
77085;SDS011;66014;53.134;18.006;2023-06-24T11:50:05;4.50;;;2.50;;
77085;SDS011;66014;53.134;18.006;2023-06-24T11:52:44;3.80;;;2.10;;
77085;SDS011;66014;53.134;18.006;2023-06-24T11:55:21;3.70;;;1.90;;
77085;SDS011;66014;53.134;18.006;2023-06-24T11:57:50;4.10;;;2.50;;
77085;SDS011;66014;53.134;18.006;2023-06-24T12:02:50;5.60;;;2.40;;
77085;SDS011;66014;53.134;18.006;2023-06-24T12:05:25;4.10;;;2.20;;
77085;SDS011;66014;53.134;18.006;2023-06-24T12:07:55;6.30;;;3.40;;
77085;SDS011;66014;53.134;18.006;2023-06-24T12:10:26;4.80;;;2.50;;
77085;SDS011;66014;53.134;18.006;2023-06-24T12:12:56;4.80;;;2.60;;
77085;SDS011;66014;53.134;18.006;2023-06-24T12:15:24;4.50;;;2.80;;
77085;SDS011;66014;53.134;18.006;2023-06-24T12:17:51;4.90;;;2.40;;
77085;SDS011;66014;53.134;18.006;2023-06-24T12:20:17;3.90;;;2.30;;
77085;SDS011;66014;53.134;18.006;2023-06-24T12:22:45;4.40;;;2.50;;
77085;SDS011;66014;53.134;18.006;2023-06-24T12:27:41;4.30;;;2.30;;
77085;SDS011;66014;53.134;18.006;2023-06-24T12:30:08;3.40;;;2.20;;
77085;SDS011;66014;53.134;18.006;2023-06-24T12:32:36;3.50;;;2.00;;
77085;SDS011;66014;53.134;18.006;2023-06-24T12:35:03;4.00;;;2.00;;
77085;SDS011;66014;53.134;18.006;2023-06-24T12:37:30;3.70;;;2.50;;
77085;SDS011;66014;53.134;18.006;2023-06-24T12:39:59;4.20;;;2.30;;
77085;SDS011;66014;53.134;18.006;2023-06-24T12:42:26;3.30;;;2.20;;
77085;SDS011;66014;53.134;18.006;2023-06-24T12:44:53;3.30;;;1.80;;
77085;SDS011;66014;53.134;18.006;2023-06-24T12:47:20;3.70;;;2.10;;
77085;SDS011;66014;53.134;18.006;2023-06-24T12:49:48;3.50;;;2.30;;
77085;SDS011;66014;53.134;18.006;2023-06-24T12:52:15;4.60;;;2.20;;
77085;SDS011;66014;53.134;18.006;2023-06-24T12:54:42;4.90;;;3.10;;
77085;SDS011;66014;53.134;18.006;2023-06-24T12:57:09;3.80;;;2.10;;
77085;SDS011;66014;53.134;18.006;2023-06-24T12:59:35;4.40;;;2.40;;
77085;SDS011;66014;53.134;18.006;2023-06-24T13:02:02;3.60;;;2.10;;
77085;SDS011;66014;53.134;18.006;2023-06-24T13:04:29;3.30;;;2.40;;
77085;SDS011;66014;53.134;18.006;2023-06-24T13:06:55;4.00;;;2.60;;
77085;SDS011;66014;53.134;18.006;2023-06-24T13:09:22;4.10;;;2.80;;
77085;SDS011;66014;53.134;18.006;2023-06-24T13:11:48;5.50;;;2.90;;
77085;SDS011;66014;53.134;18.006;2023-06-24T13:14:15;3.70;;;2.40;;
77085;SDS011;66014;53.134;18.006;2023-06-24T13:16:41;4.40;;;2.30;;
77085;SDS011;66014;53.134;18.006;2023-06-24T13:19:08;5.60;;;2.70;;
77085;SDS011;66014;53.134;18.006;2023-06-24T13:21:35;3.70;;;2.60;;
77085;SDS011;66014;53.134;18.006;2023-06-24T13:24:01;5.50;;;3.00;;
77085;SDS011;66014;53.134;18.006;2023-06-24T13:26:28;4.10;;;2.30;;
77085;SDS011;66014;53.134;18.006;2023-06-24T13:28:54;3.40;;;2.40;;
77085;SDS011;66014;53.134;18.006;2023-06-24T13:31:21;4.20;;;2.80;;
77085;SDS011;66014;53.134;18.006;2023-06-24T13:33:47;3.40;;;2.30;;
77085;SDS011;66014;53.134;18.006;2023-06-24T13:36:29;5.60;;;3.10;;
77085;SDS011;66014;53.134;18.006;2023-06-24T13:38:58;7.80;;;3.20;;
77085;SDS011;66014;53.134;18.006;2023-06-24T13:41:24;3.90;;;2.30;;
77085;SDS011;66014;53.134;18.006;2023-06-24T13:43:56;4.20;;;2.40;;
77085;SDS011;66014;53.134;18.006;2023-06-24T13:46:23;4.20;;;2.30;;
77085;SDS011;66014;53.134;18.006;2023-06-24T13:48:50;5.00;;;2.60;;
77085;SDS011;66014;53.134;18.006;2023-06-24T13:51:17;5.00;;;2.70;;
77085;SDS011;66014;53.134;18.006;2023-06-24T13:53:47;5.40;;;2.80;;
77085;SDS011;66014;53.134;18.006;2023-06-24T13:56:16;4.40;;;2.90;;
77085;SDS011;66014;53.134;18.006;2023-06-24T13:58:44;5.30;;;3.00;;
77085;SDS011;66014;53.134;18.006;2023-06-24T14:01:11;4.30;;;3.20;;
77085;SDS011;66014;53.134;18.006;2023-06-24T14:03:37;5.50;;;3.10;;
77085;SDS011;66014;53.134;18.006;2023-06-24T14:06:04;5.40;;;2.60;;
77085;SDS011;66014;53.134;18.006;2023-06-24T14:08:31;4.80;;;2.90;;
77085;SDS011;66014;53.134;18.006;2023-06-24T14:10:59;4.50;;;3.00;;
77085;SDS011;66014;53.134;18.006;2023-06-24T14:13:26;6.30;;;2.90;;
77085;SDS011;66014;53.134;18.006;2023-06-24T14:15:54;6.40;;;2.90;;
77085;SDS011;66014;53.134;18.006;2023-06-24T14:18:21;4.80;;;2.60;;
77085;SDS011;66014;53.134;18.006;2023-06-24T14:20:48;7.20;;;3.20;;
77085;SDS011;66014;53.134;18.006;2023-06-24T14:23:15;5.30;;;2.70;;
77085;SDS011;66014;53.134;18.006;2023-06-24T14:25:42;5.70;;;2.60;;
77085;SDS011;66014;53.134;18.006;2023-06-24T14:28:08;6.40;;;2.90;;
77085;SDS011;66014;53.134;18.006;2023-06-24T14:30:35;5.80;;;2.90;;
77085;SDS011;66014;53.134;18.006;2023-06-24T14:33:01;5.20;;;2.90;;
77085;SDS011;66014;53.134;18.006;2023-06-24T14:35:27;4.70;;;2.90;;
77085;SDS011;66014;53.134;18.006;2023-06-24T14:37:54;4.20;;;2.60;;
77085;SDS011;66014;53.134;18.006;2023-06-24T14:40:22;7.00;;;3.00;;
77085;SDS011;66014;53.134;18.006;2023-06-24T14:42:48;4.50;;;2.50;;
77085;SDS011;66014;53.134;18.006;2023-06-24T14:45:15;3.60;;;2.20;;
77085;SDS011;66014;53.134;18.006;2023-06-24T14:47:41;4.50;;;2.60;;
77085;SDS011;66014;53.134;18.006;2023-06-24T14:50:08;7.10;;;3.60;;
77085;SDS011;66014;53.134;18.006;2023-06-24T14:52:35;4.70;;;2.70;;
77085;SDS011;66014;53.134;18.006;2023-06-24T14:55:01;4.30;;;2.40;;
77085;SDS011;66014;53.134;18.006;2023-06-24T14:57:28;5.30;;;2.90;;
77085;SDS011;66014;53.134;18.006;2023-06-24T14:59:54;6.20;;;2.70;;
77085;SDS011;66014;53.134;18.006;2023-06-24T15:02:20;4.10;;;2.50;;
77085;SDS011;66014;53.134;18.006;2023-06-24T15:04:47;5.10;;;2.70;;
77085;SDS011;66014;53.134;18.006;2023-06-24T15:07:13;5.30;;;2.90;;
77085;SDS011;66014;53.134;18.006;2023-06-24T15:09:40;3.60;;;2.30;;
77085;SDS011;66014;53.134;18.006;2023-06-24T15:12:07;6.90;;;2.70;;
77085;SDS011;66014;53.134;18.006;2023-06-24T15:14:33;5.60;;;2.70;;